Time,TemperatureF,DewpointF,PressureIn,WindDirection,WindDirectionDegrees,WindSpeedMPH,WindSpeedGustMPH,Humidity,HourlyPrecipIn,Conditions,Clouds,dailyrainin,SolarRadiationWatts/m^2,SoftwareType,DateUTC
2013-11-14 00:11:00,33.0,17.0,-100.00,WSW,238,3.0,7.0,51,0.00,,,0.00,0.000000,,2013-11-14 07:11:00,
2013-11-14 00:22:00,33.0,17.0,-100.00,WSW,238,3.0,7.0,51,0.00,,,0.00,0.000000,,2013-11-14 07:22:00,
2013-11-14 00:32:00,33.0,17.0,-100.00,WSW,238,3.0,7.0,51,0.00,,,0.00,0.000000,,2013-11-14 07:32:00,
2013-11-14 00:42:00,33.0,17.0,-100.00,WSW,238,3.0,7.0,51,0.00,,,0.00,0.000000,,2013-11-14 07:42:00,
2013-11-14 01:12:00,33.0,17.0,-100.00,NW,308,5.0,9.0,51,0.00,,,0.00,0.000000,,2013-11-14 08:12:00,
2013-11-14 01:21:00,33.0,17.0,-100.00,NW,308,5.0,9.0,51,0.00,,,0.00,0.000000,,2013-11-14 08:21:00,
2013-11-14 01:32:00,33.0,17.0,-100.00,NW,308,5.0,9.0,51,0.00,,,0.00,0.000000,,2013-11-14 08:32:00,
2013-11-14 01:42:00,33.0,17.0,-100.00,NW,308,5.0,9.0,51,0.00,,,0.00,0.000000,,2013-11-14 08:42:00,
2013-11-14 02:21:00,31.0,17.0,-100.00,WSW,239,5.0,7.0,56,0.00,,,0.00,0.000000,,2013-11-14 09:21:00,
2013-11-14 02:33:00,31.0,17.0,-100.00,WSW,239,5.0,7.0,56,0.00,,,0.00,0.000000,,2013-11-14 09:33:00,
2013-11-14 02:43:00,31.0,17.0,-100.00,WSW,239,5.0,7.0,56,0.00,,,0.00,0.000000,,2013-11-14 09:43:00,
2013-11-14 03:42:00,32.0,19.0,-100.00,West,262,6.0,12.0,57,-99.99,,,0.00,0.000000,,2013-11-14 10:42:00,
2013-11-14 04:11:00,32.0,20.0,-100.00,West,279,6.0,12.0,62,0.00,,,0.00,0.000000,,2013-11-14 11:11:00,
2013-11-14 04:21:00,32.0,20.0,-100.00,West,279,6.0,12.0,62,0.00,,,0.00,0.000000,,2013-11-14 11:21:00,
2013-11-14 04:32:00,32.0,20.0,-100.00,West,279,6.0,12.0,62,0.00,,,0.00,0.000000,,2013-11-14 11:32:00,
2013-11-14 04:42:00,32.0,20.0,-100.00,West,279,6.0,12.0,62,0.00,,,0.00,0.000000,,2013-11-14 11:42:00,
2013-11-14 05:12:00,30.0,21.0,-100.00,West,269,6.0,16.0,69,-99.99,,,0.00,0.000000,,2013-11-14 12:12:00,
2013-11-14 05:21:00,30.0,21.0,-100.00,West,269,6.0,16.0,69,-99.99,,,0.00,0.000000,,2013-11-14 12:21:00,
2013-11-14 05:32:00,30.0,21.0,-100.00,West,269,6.0,16.0,69,-99.99,,,0.00,0.000000,,2013-11-14 12:32:00,
2013-11-14 05:41:00,30.0,21.0,-100.00,West,269,6.0,16.0,69,-99.99,,,0.00,0.000000,,2013-11-14 12:41:00,
2013-11-14 06:11:00,30.0,22.0,-100.00,West,267,6.0,12.0,71,0.00,,,0.00,0.000000,,2013-11-14 13:11:00,
2013-11-14 06:22:00,30.0,22.0,-100.00,West,267,6.0,12.0,71,0.00,,,0.00,0.000000,,2013-11-14 13:22:00,
2013-11-14 06:32:00,30.0,22.0,-100.00,West,267,6.0,12.0,71,0.00,,,0.00,0.000000,,2013-11-14 13:32:00,
2013-11-14 06:42:00,30.0,22.0,-100.00,West,267,6.0,12.0,71,0.00,,,0.00,0.000000,,2013-11-14 13:42:00,
2013-11-14 07:11:00,30.0,22.0,-100.00,West,281,6.0,13.0,71,0.00,,,0.00,0.000000,,2013-11-14 14:11:00,
2013-11-14 07:22:00,30.0,22.0,-100.00,West,281,6.0,13.0,71,0.00,,,0.00,0.000000,,2013-11-14 14:22:00,
2013-11-14 07:32:00,30.0,22.0,-100.00,West,281,6.0,13.0,71,0.00,,,0.00,0.000000,,2013-11-14 14:32:00,
2013-11-14 07:42:00,30.0,22.0,-100.00,West,281,6.0,13.0,71,0.00,,,0.00,0.000000,,2013-11-14 14:42:00,
2013-11-14 08:11:00,29.0,22.0,-100.00,West,280,6.0,13.0,75,0.00,,,0.00,14.000000,,2013-11-14 15:11:00,
2013-11-14 08:21:00,29.0,22.0,-100.00,West,280,6.0,13.0,75,0.00,,,0.00,14.000000,,2013-11-14 15:21:00,
2013-11-14 08:33:00,29.0,22.0,-100.00,West,280,6.0,13.0,75,0.00,,,0.00,14.000000,,2013-11-14 15:33:00,
2013-11-14 08:42:00,29.0,22.0,-100.00,West,280,6.0,13.0,75,0.00,,,0.00,14.000000,,2013-11-14 15:42:00,
2013-11-14 09:42:00,36.0,24.0,-100.00,SW,229,7.0,12.0,62,0.00,,,-99.99,256.000000,,2013-11-14 16:42:00,
2013-11-14 10:42:00,41.0,24.0,-100.00,NNW,348,4.0,11.0,51,-99.99,,,0.00,487.000000,,2013-11-14 17:42:00,
2013-11-14 11:12:00,42.0,22.0,-100.00,WNW,284,4.0,13.0,44,0.00,,,-99.99,646.000000,,2013-11-14 18:12:00,
2013-11-14 11:21:00,42.0,22.0,-100.00,WNW,284,4.0,13.0,44,0.00,,,-99.99,646.000000,,2013-11-14 18:21:00,
2013-11-14 11:32:00,42.0,22.0,-100.00,WNW,284,4.0,13.0,44,0.00,,,-99.99,646.000000,,2013-11-14 18:32:00,
2013-11-14 11:42:00,42.0,22.0,-100.00,WNW,284,4.0,13.0,44,0.00,,,-99.99,646.000000,,2013-11-14 18:42:00,
2013-11-14 12:11:00,45.0,19.0,-100.00,North,350,4.0,11.0,35,0.00,,,0.00,719.000000,,2013-11-14 19:11:00,
2013-11-14 12:21:00,45.0,19.0,-100.00,North,350,4.0,11.0,35,0.00,,,0.00,719.000000,,2013-11-14 19:21:00,
2013-11-14 12:31:00,45.0,19.0,-100.00,North,350,4.0,11.0,35,0.00,,,0.00,719.000000,,2013-11-14 19:31:00,
2013-11-14 12:41:00,45.0,19.0,-100.00,North,350,4.0,11.0,35,0.00,,,0.00,719.000000,,2013-11-14 19:41:00,
2013-11-14 13:22:00,47.0,14.0,-100.00,WNW,284,4.0,12.0,26,0.00,,,-99.99,730.000000,,2013-11-14 20:22:00,
2013-11-14 13:32:00,47.0,14.0,-100.00,WNW,284,4.0,12.0,26,0.00,,,-99.99,730.000000,,2013-11-14 20:32:00,
2013-11-14 13:41:00,47.0,14.0,-100.00,WNW,284,4.0,12.0,26,0.00,,,-99.99,730.000000,,2013-11-14 20:41:00,
2013-11-14 14:11:00,46.0,12.0,-100.00,NW,313,4.0,12.0,25,0.00,,,0.00,666.000000,,2013-11-14 21:11:00,
2013-11-14 14:22:00,46.0,12.0,-100.00,NW,313,4.0,12.0,25,0.00,,,0.00,666.000000,,2013-11-14 21:22:00,
2013-11-14 14:33:00,46.0,12.0,-100.00,NW,313,4.0,12.0,25,0.00,,,0.00,666.000000,,2013-11-14 21:33:00,
2013-11-14 14:43:00,46.0,12.0,-100.00,NW,313,4.0,12.0,25,0.00,,,0.00,666.000000,,2013-11-14 21:43:00,
2013-11-14 15:23:00,46.0,13.0,-100.00,WNW,292,8.0,15.0,26,0.00,,,0.00,536.000000,,2013-11-14 22:23:00,
2013-11-14 15:33:00,46.0,13.0,-100.00,WNW,292,8.0,15.0,26,0.00,,,0.00,536.000000,,2013-11-14 22:33:00,
2013-11-14 15:43:00,46.0,13.0,-100.00,WNW,292,8.0,15.0,26,0.00,,,0.00,536.000000,,2013-11-14 22:43:00,
2013-11-14 16:12:00,44.0,10.0,-100.00,WNW,298,7.0,13.0,25,0.00,,,0.00,341.000000,,2013-11-14 23:12:00,
2013-11-14 16:22:00,44.0,10.0,-100.00,WNW,298,7.0,13.0,25,0.00,,,0.00,341.000000,,2013-11-14 23:22:00,
2013-11-14 16:33:00,44.0,10.0,-100.00,WNW,298,7.0,13.0,25,0.00,,,0.00,341.000000,,2013-11-14 23:33:00,
2013-11-14 16:43:00,44.0,10.0,-100.00,WNW,298,7.0,13.0,25,0.00,,,0.00,341.000000,,2013-11-14 23:43:00,
2013-11-14 17:11:00,40.0,15.0,-100.00,NW,314,5.0,12.0,36,0.00,,,0.00,123.000000,,2013-11-15 00:11:00,
2013-11-14 17:21:00,40.0,15.0,-100.00,NW,314,5.0,12.0,36,0.00,,,0.00,123.000000,,2013-11-15 00:21:00,
2013-11-14 17:32:00,40.0,15.0,-100.00,NW,314,5.0,12.0,36,0.00,,,0.00,123.000000,,2013-11-15 00:32:00,
2013-11-14 17:41:00,40.0,15.0,-100.00,NW,314,5.0,12.0,36,0.00,,,0.00,123.000000,,2013-11-15 00:41:00,
2013-11-14 18:12:00,34.0,13.0,-100.00,NW,317,7.0,13.0,42,0.00,,,0.00,4.000000,,2013-11-15 01:12:00,
2013-11-14 18:22:00,34.0,13.0,-100.00,NW,317,7.0,13.0,42,0.00,,,0.00,4.000000,,2013-11-15 01:22:00,
2013-11-14 18:32:00,34.0,13.0,-100.00,NW,317,7.0,13.0,42,0.00,,,0.00,4.000000,,2013-11-15 01:32:00,
2013-11-14 18:42:00,34.0,13.0,-100.00,NW,317,7.0,13.0,42,0.00,,,0.00,4.000000,,2013-11-15 01:42:00,
2013-11-14 19:12:00,33.0,14.0,-100.00,ESE,103,1.0,11.0,46,0.00,,,0.00,0.000000,,2013-11-15 02:12:00,
2013-11-14 19:22:00,33.0,14.0,-100.00,ESE,103,1.0,11.0,46,0.00,,,0.00,0.000000,,2013-11-15 02:22:00,
2013-11-14 19:32:00,33.0,14.0,-100.00,ESE,103,1.0,11.0,46,0.00,,,0.00,0.000000,,2013-11-15 02:32:00,
2013-11-14 19:42:00,33.0,14.0,-100.00,ESE,103,1.0,11.0,46,0.00,,,0.00,0.000000,,2013-11-15 02:42:00,
2013-11-14 20:12:00,32.0,14.0,-100.00,WNW,287,4.0,7.0,47,0.00,,,0.00,0.000000,,2013-11-15 03:12:00,
2013-11-14 20:21:00,32.0,14.0,-100.00,WNW,287,4.0,7.0,47,0.00,,,0.00,0.000000,,2013-11-15 03:21:00,
2013-11-14 20:33:00,32.0,14.0,-100.00,WNW,287,4.0,7.0,47,0.00,,,0.00,0.000000,,2013-11-15 03:33:00,
2013-11-14 20:44:00,32.0,14.0,-100.00,WNW,287,4.0,7.0,47,0.00,,,0.00,0.000000,,2013-11-15 03:44:00,
2013-11-14 21:14:00,32.0,15.0,-100.00,SSW,209,0.0,6.0,48,0.00,,,0.00,0.000000,,2013-11-15 04:14:00,
2013-11-14 21:23:00,32.0,15.0,-100.00,SSW,209,0.0,6.0,48,0.00,,,0.00,0.000000,,2013-11-15 04:23:00,
2013-11-14 21:33:00,32.0,15.0,-100.00,SSW,209,0.0,6.0,48,0.00,,,0.00,0.000000,,2013-11-15 04:33:00,
2013-11-14 21:42:00,32.0,15.0,-100.00,SSW,209,0.0,6.0,48,0.00,,,0.00,0.000000,,2013-11-15 04:42:00,
2013-11-14 22:13:00,31.0,15.0,-100.00,NE,56,0.0,3.0,51,0.00,,,0.00,0.000000,,2013-11-15 05:13:00,
2013-11-14 22:22:00,31.0,15.0,-100.00,NE,56,0.0,3.0,51,0.00,,,0.00,0.000000,,2013-11-15 05:22:00,
2013-11-14 22:33:00,31.0,15.0,-100.00,NE,56,0.0,3.0,51,0.00,,,0.00,0.000000,,2013-11-15 05:33:00,
2013-11-14 22:43:00,31.0,15.0,-100.00,NE,56,0.0,3.0,51,0.00,,,0.00,0.000000,,2013-11-15 05:43:00,
2013-11-14 23:12:00,32.0,17.0,-100.00,SE,140,0.0,4.0,54,0.00,,,0.00,0.000000,,2013-11-15 06:12:00,
2013-11-14 23:23:00,32.0,17.0,-100.00,SE,140,0.0,4.0,54,0.00,,,0.00,0.000000,,2013-11-15 06:23:00,
2013-11-14 23:32:00,32.0,17.0,-100.00,SE,140,0.0,4.0,54,0.00,,,0.00,0.000000,,2013-11-15 06:32:00,
2013-11-14 23:43:00,32.0,17.0,-100.00,SE,140,0.0,4.0,54,0.00,,,0.00,0.000000,,2013-11-15 06:43:00,